Time,TemperatureF,DewpointF,PressureIn,WindDirection,WindDirectionDegrees,WindSpeedMPH,WindSpeedGustMPH,Humidity,HourlyPrecipIn,Conditions,Clouds,dailyrainin,SolarRadiationWatts/m^2,SoftwareType,DateUTC
2013-09-26 00:14:00,74.0,73.0,-100.00,South,182,2.0,-999.0,97,0.00,,,-99.99,0.000000,,2013-09-26 04:14:00,
2013-09-26 00:24:00,74.0,73.0,-100.00,South,169,1.0,-999.0,97,0.00,,,-99.99,0.000000,,2013-09-26 04:24:00,
2013-09-26 00:44:00,74.0,73.0,-100.00,South,178,2.0,-999.0,97,0.00,,,-99.99,0.000000,,2013-09-26 04:44:00,
2013-09-26 00:54:00,75.0,74.0,-100.00,South,191,2.0,-999.0,98,0.00,,,-99.99,0.000000,,2013-09-26 04:54:00,
2013-09-26 01:12:00,75.0,74.0,-100.00,South,181,1.0,-999.0,98,0.00,,,-99.99,0.000000,,2013-09-26 05:12:00,
2013-09-26 01:23:00,75.0,74.0,-100.00,South,180,1.0,-999.0,98,0.00,,,-99.99,0.000000,,2013-09-26 05:23:00,
2013-09-26 01:43:00,75.0,74.0,-100.00,South,181,2.0,-999.0,98,0.00,,,-99.99,0.000000,,2013-09-26 05:43:00,
2013-09-26 01:52:00,75.0,75.0,-100.00,South,181,2.0,-999.0,98,0.00,,,-99.99,0.000000,,2013-09-26 05:52:00,
2013-09-26 02:13:00,75.0,75.0,-100.00,South,174,2.0,-999.0,98,0.00,,,-99.99,0.000000,,2013-09-26 06:13:00,
2013-09-26 02:22:00,75.0,75.0,-100.00,South,173,1.0,-999.0,98,0.00,,,-99.99,0.000000,,2013-09-26 06:22:00,
2013-09-26 02:42:00,75.0,75.0,-100.00,SSE,162,1.0,-999.0,98,0.00,,,-99.99,0.000000,,2013-09-26 06:42:00,
2013-09-26 02:54:00,75.0,75.0,-100.00,South,184,1.0,-999.0,98,0.00,,,-99.99,0.000000,,2013-09-26 06:54:00,
2013-09-26 03:12:00,75.0,75.0,-100.00,SSE,158,1.0,-999.0,98,0.00,,,-99.99,0.000000,,2013-09-26 07:12:00,
2013-09-26 03:22:00,75.0,75.0,-100.00,SSE,165,1.0,-999.0,98,0.00,,,-99.99,0.000000,,2013-09-26 07:22:00,
2013-09-26 03:42:00,75.0,75.0,-100.00,SSE,150,1.0,-999.0,98,0.00,,,-99.99,0.000000,,2013-09-26 07:42:00,
2013-09-26 03:53:00,76.0,75.0,-100.00,South,186,2.0,-999.0,98,0.00,,,-99.99,0.000000,,2013-09-26 07:53:00,
2013-09-26 04:11:00,75.0,75.0,-100.00,SSE,167,1.0,-999.0,98,0.00,,,-99.99,0.000000,,2013-09-26 08:11:00,
2013-09-26 04:22:00,75.0,75.0,-100.00,SSE,155,1.0,-999.0,98,0.00,,,-99.99,0.000000,,2013-09-26 08:22:00,
2013-09-26 04:42:00,75.0,75.0,-100.00,SE,143,1.0,-999.0,98,0.00,,,-99.99,0.000000,,2013-09-26 08:42:00,
2013-09-26 04:52:00,75.0,75.0,-100.00,SE,138,1.0,-999.0,98,0.00,,,-99.99,0.000000,,2013-09-26 08:52:00,
2013-09-26 05:11:00,75.0,74.0,-100.00,SSE,157,0.0,-999.0,98,0.00,,,-99.99,0.000000,,2013-09-26 09:11:00,
2013-09-26 05:22:00,75.0,74.0,-100.00,SSE,148,1.0,-999.0,98,0.00,,,-99.99,0.000000,,2013-09-26 09:22:00,
2013-09-26 05:43:00,75.0,74.0,-100.00,SSE,162,1.0,-999.0,98,0.00,,,-99.99,0.000000,,2013-09-26 09:43:00,
2013-09-26 05:54:00,75.0,74.0,-100.00,SE,145,1.0,-999.0,98,0.00,,,-99.99,0.000000,,2013-09-26 09:54:00,
2013-09-26 06:12:00,75.0,74.0,-100.00,SE,126,1.0,-999.0,98,0.00,,,-99.99,0.000000,,2013-09-26 10:12:00,
2013-09-26 06:23:00,75.0,74.0,-100.00,ESE,106,1.0,-999.0,98,0.00,,,-99.99,0.000000,,2013-09-26 10:23:00,
2013-09-26 06:42:00,74.0,74.0,-100.00,SE,134,1.0,-999.0,98,0.00,,,-99.99,0.000000,,2013-09-26 10:42:00,
2013-09-26 06:53:00,74.0,74.0,-100.00,ESE,111,1.0,-999.0,98,0.00,,,-99.99,0.000000,,2013-09-26 10:53:00,
2013-09-26 07:12:00,74.0,74.0,-100.00,ESE,123,1.0,-999.0,98,0.00,,,-99.99,0.000000,,2013-09-26 11:12:00,
2013-09-26 07:22:00,74.0,74.0,-100.00,SE,130,0.0,-999.0,98,0.00,,,-99.99,0.000000,,2013-09-26 11:22:00,
2013-09-26 07:42:00,74.0,74.0,-100.00,SSE,162,1.0,-999.0,98,0.00,,,-99.99,0.600000,,2013-09-26 11:42:00,
2013-09-26 07:52:00,74.0,74.0,-100.00,SSE,154,1.0,-999.0,98,0.00,,,-99.99,4.800000,,2013-09-26 11:52:00,
2013-09-26 08:12:00,75.0,74.0,-100.00,SE,142,1.0,-999.0,99,0.00,,,-99.99,12.600000,,2013-09-26 12:12:00,
2013-09-26 08:22:00,75.0,75.0,-100.00,NNE,24,1.0,-999.0,99,0.00,,,-99.99,17.000000,,2013-09-26 12:22:00,
2013-09-26 08:42:00,76.0,75.0,-100.00,West,268,1.0,-999.0,99,0.00,,,-99.99,21.200001,,2013-09-26 12:42:00,
2013-09-26 08:52:00,77.0,77.0,-100.00,West,263,2.0,-999.0,99,0.00,,,-99.99,24.400000,,2013-09-26 12:52:00,
2013-09-26 09:12:00,78.0,77.0,-100.00,WSW,247,2.0,-999.0,99,0.00,,,-99.99,28.600000,,2013-09-26 13:12:00,
2013-09-26 09:22:00,78.0,78.0,-100.00,West,272,3.0,-999.0,98,0.00,,,-99.99,31.799999,,2013-09-26 13:22:00,
2013-09-26 09:42:00,80.0,79.0,-100.00,West,270,3.0,-999.0,96,0.00,,,-99.99,38.799999,,2013-09-26 13:42:00,
2013-09-26 09:52:00,82.0,78.0,-100.00,WNW,287,4.0,-999.0,90,0.00,,,-99.99,74.400002,,2013-09-26 13:52:00,
2013-09-26 10:11:00,83.0,78.0,-100.00,WNW,293,6.0,-999.0,85,0.00,,,-99.99,268.299988,,2013-09-26 14:11:00,
2013-09-26 10:22:00,84.0,78.0,-100.00,WNW,285,5.0,-999.0,82,0.00,,,-99.99,433.899994,,2013-09-26 14:22:00,
2013-09-26 10:42:00,85.0,78.0,-100.00,WNW,292,5.0,-999.0,81,0.03,,,-99.99,501.899994,,2013-09-26 14:42:00,
2013-09-26 10:52:00,80.0,77.0,-100.00,NW,311,7.0,-999.0,91,0.57,,,-99.99,89.599998,,2013-09-26 14:52:00,
2013-09-26 11:11:00,79.0,77.0,-100.00,WNW,287,2.0,-999.0,95,0.03,,,-99.99,238.600006,,2013-09-26 15:11:00,
2013-09-26 11:22:00,80.0,79.0,-100.00,WNW,292,3.0,-999.0,94,0.00,,,-99.99,393.899994,,2013-09-26 15:22:00,
2013-09-26 11:44:00,82.0,80.0,-100.00,NW,313,5.0,-999.0,91,0.00,,,-99.99,540.799988,,2013-09-26 15:44:00,
2013-09-26 11:54:00,84.0,80.0,-100.00,WNW,302,5.0,-999.0,87,0.00,,,-99.99,685.299988,,2013-09-26 15:54:00,
2013-09-26 12:13:00,85.0,79.0,-100.00,WNW,287,6.0,-999.0,82,0.00,,,-99.99,645.700012,,2013-09-26 16:13:00,
2013-09-26 12:24:00,86.0,79.0,-100.00,WNW,290,6.0,-999.0,77,0.00,,,-99.99,693.099976,,2013-09-26 16:24:00,
2013-09-26 12:43:00,87.0,78.0,-100.00,NW,304,7.0,-999.0,76,0.00,,,-99.99,530.700012,,2013-09-26 16:43:00,
2013-09-26 12:54:00,84.0,78.0,-100.00,NW,321,8.0,-999.0,82,0.03,,,-99.99,208.199997,,2013-09-26 16:54:00,
2013-09-26 13:12:00,85.0,78.0,-100.00,NW,320,7.0,-999.0,80,0.00,,,-99.99,576.200012,,2013-09-26 17:12:00,
2013-09-26 13:23:00,86.0,78.0,-100.00,NW,326,8.0,-999.0,76,0.00,,,-99.99,521.299988,,2013-09-26 17:23:00,
2013-09-26 13:43:00,87.0,77.0,-100.00,NW,318,10.0,-999.0,72,0.00,,,-99.99,487.399994,,2013-09-26 17:43:00,
2013-09-26 13:53:00,87.0,77.0,-100.00,NW,321,8.0,-999.0,70,0.00,,,-99.99,448.899994,,2013-09-26 17:53:00,
2013-09-26 14:13:00,86.0,76.0,-100.00,NW,306,7.0,-999.0,71,0.00,,,-99.99,315.899994,,2013-09-26 18:13:00,
2013-09-26 14:22:00,86.0,77.0,-100.00,NNW,335,12.0,-999.0,74,0.00,,,-99.99,488.200012,,2013-09-26 18:22:00,
2013-09-26 14:42:00,86.0,78.0,-100.00,NNW,337,11.0,-999.0,76,0.00,,,-99.99,703.000000,,2013-09-26 18:42:00,
2013-09-26 14:52:00,86.0,77.0,-100.00,NNW,332,9.0,-999.0,75,0.00,,,-99.99,483.399994,,2013-09-26 18:52:00,
2013-09-26 15:12:00,87.0,78.0,-100.00,NW,323,8.0,-999.0,73,0.00,,,-99.99,517.400024,,2013-09-26 19:12:00,
2013-09-26 15:22:00,85.0,77.0,-100.00,NNW,333,9.0,-999.0,75,0.00,,,-99.99,233.100006,,2013-09-26 19:22:00,
2013-09-26 15:44:00,87.0,76.0,-100.00,NNW,331,11.0,-999.0,68,0.00,,,-99.99,728.000000,,2013-09-26 19:44:00,
2013-09-26 15:52:00,88.0,71.0,-100.00,NW,324,10.0,-999.0,56,0.00,,,-99.99,706.000000,,2013-09-26 19:52:00,
2013-09-26 16:12:00,88.0,70.0,-100.00,NW,324,8.0,-999.0,55,0.00,,,-99.99,660.799988,,2013-09-26 20:12:00,
2013-09-26 16:23:00,88.0,70.0,-100.00,NNW,338,11.0,-999.0,55,0.00,,,-99.99,596.599976,,2013-09-26 20:23:00,
2013-09-26 16:43:00,88.0,70.0,-100.00,NNW,336,11.0,-999.0,56,0.00,,,-99.99,562.000000,,2013-09-26 20:43:00,
2013-09-26 16:52:00,87.0,70.0,-100.00,NNW,333,10.0,-999.0,55,0.00,,,-99.99,467.899994,,2013-09-26 20:52:00,
2013-09-26 17:12:00,86.0,68.0,-100.00,NNW,327,9.0,-999.0,55,0.00,,,-99.99,194.399994,,2013-09-26 21:12:00,
2013-09-26 17:23:00,85.0,70.0,-100.00,NW,322,6.0,-999.0,60,0.00,,,-99.99,189.800003,,2013-09-26 21:23:00,
2013-09-26 17:44:00,85.0,70.0,-100.00,NW,326,6.0,-999.0,60,0.00,,,-99.99,153.699997,,2013-09-26 21:44:00,
2013-09-26 17:54:00,84.0,70.0,-100.00,NW,320,6.0,-999.0,61,0.00,,,-99.99,128.000000,,2013-09-26 21:54:00,
2013-09-26 18:14:00,84.0,70.0,-100.00,NW,312,5.0,-999.0,62,0.00,,,-99.99,127.500000,,2013-09-26 22:14:00,
2013-09-26 18:24:00,83.0,70.0,-100.00,WNW,300,3.0,-999.0,64,0.00,,,-99.99,119.699997,,2013-09-26 22:24:00,
2013-09-26 18:43:00,83.0,71.0,-100.00,WNW,300,4.0,-999.0,66,0.00,,,-99.99,118.500000,,2013-09-26 22:43:00,
2013-09-26 18:54:00,83.0,71.0,-100.00,WNW,297,4.0,-999.0,67,0.00,,,-99.99,101.199997,,2013-09-26 22:54:00,
2013-09-26 19:12:00,83.0,71.0,-100.00,WNW,301,4.0,-999.0,67,0.00,,,-99.99,41.599998,,2013-09-26 23:12:00,
2013-09-26 19:23:00,82.0,71.0,-100.00,WNW,288,2.0,-999.0,69,0.00,,,-99.99,18.299999,,2013-09-26 23:23:00,
2013-09-26 19:42:00,80.0,71.0,-100.00,WNW,303,2.0,-999.0,73,0.00,,,-99.99,9.400000,,2013-09-26 23:42:00,
2013-09-26 19:53:00,80.0,71.0,-100.00,NW,310,3.0,-999.0,75,0.00,,,-99.99,2.900000,,2013-09-26 23:53:00,
2013-09-26 20:22:00,78.0,71.0,-100.00,NW,317,3.0,-999.0,78,0.00,,,-99.99,0.000000,,2013-09-27 00:22:00,
2013-09-26 20:43:00,77.0,71.0,-100.00,NW,318,4.0,-999.0,81,0.00,,,-99.99,0.000000,,2013-09-27 00:43:00,
2013-09-26 20:52:00,77.0,71.0,-100.00,NW,317,4.0,-999.0,83,0.00,,,-99.99,0.000000,,2013-09-27 00:52:00,
2013-09-26 21:12:00,77.0,72.0,-100.00,NW,324,4.0,-999.0,85,0.00,,,-99.99,0.000000,,2013-09-27 01:12:00,
2013-09-26 21:23:00,76.0,72.0,-100.00,NW,315,3.0,-999.0,86,0.00,,,-99.99,0.000000,,2013-09-27 01:23:00,
2013-09-26 21:42:00,76.0,72.0,-100.00,NW,312,3.0,-999.0,87,0.00,,,-99.99,0.000000,,2013-09-27 01:42:00,
2013-09-26 21:52:00,75.0,72.0,-100.00,NW,317,2.0,-999.0,89,0.00,,,-99.99,0.000000,,2013-09-27 01:52:00,
2013-09-26 22:12:00,75.0,72.0,-100.00,NW,325,2.0,-999.0,90,0.00,,,-99.99,0.000000,,2013-09-27 02:12:00,
2013-09-26 22:22:00,75.0,72.0,-100.00,NNW,344,2.0,-999.0,91,0.00,,,-99.99,0.000000,,2013-09-27 02:22:00,
2013-09-26 22:43:00,74.0,72.0,-100.00,North,358,2.0,-999.0,93,0.00,,,-99.99,0.000000,,2013-09-27 02:43:00,
2013-09-26 22:53:00,75.0,72.0,-100.00,NNW,342,3.0,-999.0,93,0.00,,,-99.99,0.000000,,2013-09-27 02:53:00,
2013-09-26 23:12:00,74.0,72.0,-100.00,North,355,2.0,-999.0,93,0.00,,,-99.99,0.000000,,2013-09-27 03:12:00,
2013-09-26 23:22:00,74.0,72.0,-100.00,North,4,3.0,-999.0,93,0.00,,,-99.99,0.000000,,2013-09-27 03:22:00,
2013-09-26 23:44:00,74.0,72.0,-100.00,North,8,4.0,-999.0,94,0.00,,,-99.99,0.000000,,2013-09-27 03:44:00,
2013-09-26 23:55:00,74.0,72.0,-100.00,NNE,19,3.0,-999.0,93,0.00,,,-99.99,0.000000,,2013-09-27 03:55:00,